SDM6622 ZBAD-UNKL
Flight info
| Callsign | SDM6622 |
|---|---|
| Flight time | 3h 53m |
| Altitude | 34100 |
| Route | N0460F341 K0845S1040 IDKE6K IDKEX B339 ASILA A575 INTIK Y618 AMUTA/K0837F340 R229 KESUM R372 IMNUS T631 RO A311 TISBU DCT LALOM LALO2R |
| Aircraft | B738/M-VGDW/C |
Departure
| Time | 2026-04-21 13:56 |
|---|---|
| Airport | Beijing Daxing International Airport (ZBAD) |
Arrival
| Time | 2026-04-21 17:49 |
|---|---|
| Airport | Krasnoyarsk International Airport (UNKL) |
| Time | Latitude | Longitude | Altitude | Speed | Heading |
|---|---|---|---|---|---|
| 2026-04-21 13:30 | 39.50521 | 116.40978 | 90 ft | 0 kts | 101° |
| 2026-04-21 13:46 | 39.50523 | 116.40971 | 90 ft | 2 kts | 101° |
| 2026-04-21 13:46 | 39.50526 | 116.40951 | 90 ft | 2 kts | 101° |
| 2026-04-21 13:46 | 39.50528 | 116.40932 | 90 ft | 2 kts | 103° |
| 2026-04-21 13:47 | 39.50536 | 116.40915 | 90 ft | 2 kts | 133° |
| 2026-04-21 13:47 | 39.50547 | 116.40903 | 90 ft | 2 kts | 157° |
| 2026-04-21 13:47 | 39.50562 | 116.40899 | 90 ft | 2 kts | 181° |
| 2026-04-21 13:47 | 39.50569 | 116.40900 | 90 ft | 1 kts | 192° |
| 2026-04-21 13:48 | 39.50573 | 116.40900 | 90 ft | 0 kts | 189° |
| 2026-04-21 13:49 | 39.50537 | 116.40893 | 90 ft | 11 kts | 190° |
| 2026-04-21 13:49 | 39.50451 | 116.40825 | 90 ft | 10 kts | 257° |
| 2026-04-21 13:50 | 39.50488 | 116.40713 | 90 ft | 16 kts | 281° |
| 2026-04-21 13:50 | 39.50481 | 116.40555 | 90 ft | 19 kts | 263° |
| 2026-04-21 13:50 | 39.50538 | 116.40399 | 90 ft | 21 kts | 322° |
| 2026-04-21 13:50 | 39.50640 | 116.40292 | 90 ft | 14 kts | 297° |
| 2026-04-21 13:51 | 39.50638 | 116.40163 | 90 ft | 15 kts | 261° |
| 2026-04-21 13:51 | 39.50650 | 116.40031 | 90 ft | 15 kts | 313° |
| 2026-04-21 13:51 | 39.50753 | 116.39996 | 90 ft | 15 kts | 352° |
| 2026-04-21 13:51 | 39.50866 | 116.39977 | 90 ft | 16 kts | 351° |
| 2026-04-21 13:52 | 39.50982 | 116.39957 | 90 ft | 17 kts | 352° |
| 2026-04-21 13:52 | 39.51105 | 116.39937 | 90 ft | 18 kts | 355° |
| 2026-04-21 13:52 | 39.51233 | 116.39921 | 90 ft | 18 kts | 353° |
| 2026-04-21 13:52 | 39.51364 | 116.39900 | 90 ft | 19 kts | 352° |
| 2026-04-21 13:53 | 39.51500 | 116.39877 | 90 ft | 20 kts | 353° |
| 2026-04-21 13:53 | 39.51644 | 116.39854 | 90 ft | 21 kts | 352° |
| 2026-04-21 13:53 | 39.51784 | 116.39806 | 90 ft | 21 kts | 303° |
| 2026-04-21 13:53 | 39.51778 | 116.39616 | 90 ft | 22 kts | 258° |
| 2026-04-21 13:54 | 39.51758 | 116.39418 | 90 ft | 22 kts | 264° |
| 2026-04-21 13:54 | 39.51741 | 116.39210 | 90 ft | 23 kts | 263° |
| 2026-04-21 13:54 | 39.51717 | 116.38994 | 90 ft | 24 kts | 262° |
| 2026-04-21 13:54 | 39.51690 | 116.38804 | 90 ft | 16 kts | 233° |
| 2026-04-21 13:55 | 39.51584 | 116.38755 | 90 ft | 18 kts | 177° |
| 2026-04-21 13:55 | 39.51282 | 116.38799 | 90 ft | 79 kts | 173° |
| 2026-04-21 13:55 | 39.50505 | 116.38924 | 90 ft | 143 kts | 173° |
| 2026-04-21 13:55 | 39.49331 | 116.39123 | 221 ft | 185 kts | 175° |
| 2026-04-21 13:56 | 39.48088 | 116.39346 | 1061 ft | 181 kts | 177° |
| 2026-04-21 13:56 | 39.46873 | 116.39512 | 1868 ft | 180 kts | 179° |
| 2026-04-21 13:56 | 39.45594 | 116.39667 | 2332 ft | 194 kts | 179° |
| 2026-04-21 13:56 | 39.44196 | 116.39857 | 2735 ft | 212 kts | 178° |
| 2026-04-21 13:57 | 39.42648 | 116.40079 | 3137 ft | 232 kts | 177° |
| 2026-04-21 13:57 | 39.40992 | 116.40329 | 3672 ft | 247 kts | 176° |
| 2026-04-21 13:57 | 39.39252 | 116.40608 | 3952 ft | 260 kts | 175° |
| 2026-04-21 13:57 | 39.37424 | 116.41037 | 3980 ft | 274 kts | 165° |
| 2026-04-21 13:58 | 39.35764 | 116.42256 | 4767 ft | 281 kts | 136° |
| 2026-04-21 13:58 | 39.34711 | 116.44364 | 5660 ft | 281 kts | 107° |
| 2026-04-21 13:58 | 39.34438 | 116.46792 | 6536 ft | 278 kts | 87° |
| 2026-04-21 13:58 | 39.34626 | 116.49287 | 7292 ft | 280 kts | 79° |
| 2026-04-21 13:59 | 39.34929 | 116.51745 | 7989 ft | 283 kts | 78° |
| 2026-04-21 13:59 | 39.35307 | 116.54256 | 8710 ft | 286 kts | 71° |
| 2026-04-21 13:59 | 39.36075 | 116.56576 | 9440 ft | 283 kts | 52° |
| 2026-04-21 13:59 | 39.37439 | 116.58339 | 10190 ft | 279 kts | 32° |
| 2026-04-21 14:00 | 39.39082 | 116.59716 | 10643 ft | 290 kts | 30° |
| 2026-04-21 14:00 | 39.40836 | 116.61161 | 11082 ft | 303 kts | 30° |
| 2026-04-21 14:00 | 39.42614 | 116.62661 | 11507 ft | 316 kts | 31° |
| 2026-04-21 14:00 | 39.44477 | 116.64314 | 11851 ft | 332 kts | 35° |
| 2026-04-21 14:01 | 39.46222 | 116.66358 | 12219 ft | 348 kts | 43° |
| 2026-04-21 14:01 | 39.47889 | 116.68689 | 12610 ft | 361 kts | 45° |
| 2026-04-21 14:01 | 39.49564 | 116.71165 | 13227 ft | 367 kts | 46° |
| 2026-04-21 14:01 | 39.51236 | 116.73648 | 13860 ft | 370 kts | 46° |
| 2026-04-21 14:02 | 39.52927 | 116.76202 | 14496 ft | 375 kts | 48° |
| 2026-04-21 14:02 | 39.54464 | 116.78944 | 15040 ft | 383 kts | 53° |
| 2026-04-21 14:02 | 39.55859 | 116.81934 | 15600 ft | 389 kts | 57° |
| 2026-04-21 14:03 | 39.58359 | 116.88251 | 16648 ft | 401 kts | 61° |
| 2026-04-21 14:03 | 39.59580 | 116.91537 | 17183 ft | 406 kts | 61° |
| 2026-04-21 14:03 | 39.60830 | 116.94820 | 17695 ft | 409 kts | 58° |
| 2026-04-21 14:03 | 39.62434 | 116.97831 | 18121 ft | 409 kts | 43° |
| 2026-04-21 14:04 | 39.64656 | 117.00131 | 18585 ft | 407 kts | 27° |
| 2026-04-21 14:04 | 39.67230 | 117.01605 | 19042 ft | 406 kts | 14° |
| 2026-04-21 14:04 | 39.69962 | 117.02454 | 19584 ft | 405 kts | 7° |
| 2026-04-21 14:04 | 39.72740 | 117.02875 | 20038 ft | 405 kts | 358° |
| 2026-04-21 14:05 | 39.75568 | 117.02693 | 20544 ft | 404 kts | 349° |
| 2026-04-21 14:05 | 39.78337 | 117.02144 | 21027 ft | 405 kts | 346° |
| 2026-04-21 14:05 | 39.81107 | 117.01484 | 21446 ft | 409 kts | 345° |
| 2026-04-21 14:05 | 39.83908 | 117.00829 | 21887 ft | 412 kts | 346° |
| 2026-04-21 14:06 | 39.86759 | 117.00221 | 22296 ft | 417 kts | 347° |
| 2026-04-21 14:06 | 39.89633 | 116.99674 | 22753 ft | 420 kts | 347° |
| 2026-04-21 14:06 | 39.92554 | 116.99165 | 23165 ft | 423 kts | 348° |
| 2026-04-21 14:06 | 39.95459 | 116.98691 | 23591 ft | 426 kts | 348° |
| 2026-04-21 14:07 | 39.98430 | 116.98225 | 23991 ft | 430 kts | 348° |
| 2026-04-21 14:07 | 40.01408 | 116.97768 | 24397 ft | 433 kts | 348° |
| 2026-04-21 14:07 | 40.04414 | 116.97311 | 24846 ft | 434 kts | 348° |
| 2026-04-21 14:07 | 40.07391 | 116.96862 | 25227 ft | 437 kts | 348° |
| 2026-04-21 14:08 | 40.10451 | 116.96400 | 25538 ft | 442 kts | 347° |
| 2026-04-21 14:08 | 40.13514 | 116.95937 | 25943 ft | 444 kts | 347° |
| 2026-04-21 14:08 | 40.16572 | 116.95476 | 26329 ft | 446 kts | 347° |
| 2026-04-21 14:08 | 40.19675 | 116.95005 | 26567 ft | 452 kts | 347° |
| 2026-04-21 14:09 | 40.22829 | 116.94527 | 26988 ft | 453 kts | 347° |
| 2026-04-21 14:09 | 40.25957 | 116.94053 | 27320 ft | 456 kts | 347° |
| 2026-04-21 14:09 | 40.29115 | 116.93572 | 27640 ft | 459 kts | 347° |
| 2026-04-21 14:09 | 40.32268 | 116.93093 | 28048 ft | 460 kts | 346° |
| 2026-04-21 14:10 | 40.35457 | 116.92609 | 28569 ft | 458 kts | 346° |
| 2026-04-21 14:10 | 40.38594 | 116.92136 | 29122 ft | 454 kts | 346° |
| 2026-04-21 14:10 | 40.41691 | 116.91550 | 29603 ft | 449 kts | 342° |
| 2026-04-21 14:10 | 40.44695 | 116.90636 | 30040 ft | 440 kts | 335° |
| 2026-04-21 14:11 | 40.47551 | 116.89263 | 30329 ft | 436 kts | 329° |
| 2026-04-21 14:11 | 40.50262 | 116.87472 | 30483 ft | 434 kts | 322° |
| 2026-04-21 14:11 | 40.52767 | 116.85315 | 30764 ft | 430 kts | 317° |
| 2026-04-21 14:11 | 40.55081 | 116.82940 | 31316 ft | 423 kts | 313° |
| 2026-04-21 14:12 | 40.57302 | 116.80463 | 31811 ft | 418 kts | 311° |
| 2026-04-21 14:12 | 40.59496 | 116.77933 | 32325 ft | 413 kts | 311° |
| 2026-04-21 14:12 | 40.61628 | 116.75447 | 32888 ft | 408 kts | 310° |
| 2026-04-21 14:12 | 40.63729 | 116.72997 | 33350 ft | 404 kts | 310° |
| 2026-04-21 14:13 | 40.65836 | 116.70541 | 33665 ft | 405 kts | 310° |
| 2026-04-21 14:13 | 40.67945 | 116.68086 | 33938 ft | 406 kts | 310° |
| 2026-04-21 14:13 | 40.70089 | 116.65597 | 34045 ft | 409 kts | 310° |
| 2026-04-21 14:14 | 40.74437 | 116.60706 | 34039 ft | 411 kts | 314° |
| 2026-04-21 14:14 | 40.79650 | 116.57091 | 34044 ft | 437 kts | 334° |
| 2026-04-21 14:15 | 40.85761 | 116.55776 | 34045 ft | 452 kts | 345° |
| 2026-04-21 14:15 | 40.92043 | 116.55157 | 34055 ft | 453 kts | 347° |
| 2026-04-21 14:16 | 40.98346 | 116.54639 | 34053 ft | 455 kts | 347° |
| 2026-04-21 14:16 | 41.04675 | 116.54108 | 34061 ft | 453 kts | 346° |
| 2026-04-21 14:17 | 41.10960 | 116.53553 | 34062 ft | 452 kts | 346° |
| 2026-04-21 14:17 | 41.17238 | 116.52982 | 34066 ft | 451 kts | 346° |
| 2026-04-21 14:18 | 41.23385 | 116.51923 | 34062 ft | 438 kts | 336° |
| 2026-04-21 14:18 | 41.26221 | 116.50627 | 34061 ft | 424 kts | 327° |
| 2026-04-21 14:18 | 41.28806 | 116.48925 | 34063 ft | 417 kts | 322° |
| 2026-04-21 14:19 | 41.33823 | 116.45016 | 34073 ft | 413 kts | 319° |
| 2026-04-21 14:19 | 41.38726 | 116.41024 | 34083 ft | 415 kts | 320° |
| 2026-04-21 14:20 | 41.43618 | 116.37079 | 34083 ft | 413 kts | 320° |
| 2026-04-21 14:20 | 41.48580 | 116.33111 | 34085 ft | 413 kts | 319° |
| 2026-04-21 14:21 | 41.53504 | 116.29188 | 34088 ft | 412 kts | 320° |
| 2026-04-21 14:21 | 41.58414 | 116.25275 | 34095 ft | 411 kts | 319° |
| 2026-04-21 14:22 | 41.63330 | 116.21356 | 34094 ft | 411 kts | 319° |
| 2026-04-21 14:22 | 41.68235 | 116.17432 | 34097 ft | 413 kts | 320° |
| 2026-04-21 14:23 | 41.73179 | 116.13474 | 34098 ft | 412 kts | 320° |
| 2026-04-21 14:23 | 41.78088 | 116.09539 | 34097 ft | 409 kts | 319° |
| 2026-04-21 14:24 | 41.82971 | 116.05616 | 34098 ft | 410 kts | 320° |
| 2026-04-21 14:24 | 41.87863 | 116.01675 | 34097 ft | 411 kts | 319° |
| 2026-04-21 14:25 | 41.92737 | 115.97626 | 34098 ft | 405 kts | 316° |
| 2026-04-21 14:25 | 41.96713 | 115.92535 | 34098 ft | 388 kts | 299° |
| 2026-04-21 14:26 | 41.99509 | 115.86469 | 34110 ft | 382 kts | 293° |
| 2026-04-21 14:26 | 42.02037 | 115.80187 | 34112 ft | 381 kts | 292° |
| 2026-04-21 14:27 | 42.04537 | 115.73924 | 34104 ft | 380 kts | 293° |
| 2026-04-21 14:27 | 42.07042 | 115.67683 | 34097 ft | 380 kts | 293° |
| 2026-04-21 14:28 | 42.09569 | 115.61396 | 34104 ft | 382 kts | 293° |
| 2026-04-21 14:28 | 42.12090 | 115.55122 | 34098 ft | 382 kts | 293° |
| 2026-04-21 14:29 | 42.14611 | 115.48843 | 34098 ft | 382 kts | 293° |
| 2026-04-21 14:29 | 42.17144 | 115.42527 | 34099 ft | 383 kts | 293° |
| 2026-04-21 14:30 | 42.19669 | 115.36214 | 34104 ft | 382 kts | 294° |
| 2026-04-21 14:30 | 42.22166 | 115.29951 | 34108 ft | 382 kts | 292° |
| 2026-04-21 14:31 | 42.24679 | 115.23592 | 34116 ft | 382 kts | 292° |
| 2026-04-21 14:31 | 42.27079 | 115.17217 | 34116 ft | 381 kts | 291° |
| 2026-04-21 14:32 | 42.29451 | 115.10836 | 34114 ft | 381 kts | 292° |
| 2026-04-21 14:32 | 42.31839 | 115.04426 | 34119 ft | 382 kts | 292° |
| 2026-04-21 14:33 | 42.34232 | 114.98001 | 34115 ft | 383 kts | 292° |
| 2026-04-21 14:33 | 42.36603 | 114.91637 | 34112 ft | 382 kts | 292° |
| 2026-04-21 14:34 | 42.39004 | 114.85180 | 34116 ft | 383 kts | 292° |
| 2026-04-21 14:34 | 42.41376 | 114.78782 | 34108 ft | 384 kts | 292° |
| 2026-04-21 14:35 | 42.43762 | 114.72341 | 34112 ft | 383 kts | 292° |
| 2026-04-21 14:35 | 42.46137 | 114.65914 | 34108 ft | 384 kts | 292° |
| 2026-04-21 14:36 | 42.48514 | 114.59467 | 34107 ft | 384 kts | 293° |
| 2026-04-21 14:36 | 42.50905 | 114.52965 | 34106 ft | 385 kts | 293° |
| 2026-04-21 14:37 | 42.53269 | 114.46519 | 34102 ft | 385 kts | 292° |
| 2026-04-21 14:37 | 42.55644 | 114.40028 | 34103 ft | 384 kts | 292° |
| 2026-04-21 14:38 | 42.58026 | 114.33510 | 34102 ft | 384 kts | 292° |
| 2026-04-21 14:38 | 42.60387 | 114.27023 | 34099 ft | 384 kts | 292° |
| 2026-04-21 14:39 | 42.62764 | 114.20483 | 34090 ft | 387 kts | 292° |
| 2026-04-21 14:39 | 42.65211 | 114.14004 | 34084 ft | 387 kts | 294° |
| 2026-04-21 14:40 | 42.67728 | 114.07526 | 34095 ft | 388 kts | 294° |
| 2026-04-21 14:40 | 42.70225 | 114.01073 | 34091 ft | 388 kts | 294° |
| 2026-04-21 14:41 | 42.72715 | 113.94600 | 34094 ft | 387 kts | 294° |
| 2026-04-21 14:41 | 42.75200 | 113.88113 | 34088 ft | 388 kts | 294° |
| 2026-04-21 14:42 | 42.77701 | 113.81562 | 34083 ft | 394 kts | 294° |
| 2026-04-21 14:42 | 42.80250 | 113.74855 | 34084 ft | 402 kts | 294° |
| 2026-04-21 14:43 | 42.82801 | 113.68141 | 34079 ft | 400 kts | 294° |
| 2026-04-21 14:43 | 42.85349 | 113.61427 | 34088 ft | 400 kts | 294° |
| 2026-04-21 14:44 | 42.87883 | 113.54725 | 34083 ft | 401 kts | 294° |
| 2026-04-21 14:44 | 42.90442 | 113.47944 | 34082 ft | 399 kts | 294° |
| 2026-04-21 14:45 | 42.92971 | 113.41222 | 34069 ft | 400 kts | 294° |
| 2026-04-21 14:45 | 42.95502 | 113.34472 | 34072 ft | 402 kts | 294° |
| 2026-04-21 14:46 | 42.98045 | 113.27689 | 34070 ft | 401 kts | 294° |
| 2026-04-21 14:46 | 43.00583 | 113.20894 | 34068 ft | 401 kts | 294° |
| 2026-04-21 14:47 | 43.03139 | 113.14108 | 34072 ft | 401 kts | 294° |
| 2026-04-21 14:47 | 43.05707 | 113.07411 | 34066 ft | 401 kts | 295° |
| 2026-04-21 14:48 | 43.08318 | 113.00608 | 34069 ft | 401 kts | 294° |
| 2026-04-21 14:48 | 43.10898 | 112.93850 | 34080 ft | 402 kts | 295° |
| 2026-04-21 14:49 | 43.13463 | 112.87106 | 34091 ft | 401 kts | 294° |
| 2026-04-21 14:49 | 43.16038 | 112.80320 | 34090 ft | 400 kts | 295° |
| 2026-04-21 14:50 | 43.18602 | 112.73537 | 34091 ft | 403 kts | 295° |
| 2026-04-21 14:50 | 43.21151 | 112.66772 | 34093 ft | 402 kts | 294° |
| 2026-04-21 14:51 | 43.23724 | 112.59940 | 34094 ft | 404 kts | 295° |
| 2026-04-21 14:51 | 43.26302 | 112.53078 | 34094 ft | 403 kts | 295° |
| 2026-04-21 14:52 | 43.28855 | 112.46268 | 34094 ft | 403 kts | 295° |
| 2026-04-21 14:52 | 43.31412 | 112.39425 | 34092 ft | 403 kts | 295° |
| 2026-04-21 14:53 | 43.33966 | 112.32570 | 34094 ft | 404 kts | 294° |
| 2026-04-21 14:53 | 43.36505 | 112.25742 | 34090 ft | 402 kts | 294° |
| 2026-04-21 14:54 | 43.39059 | 112.18907 | 34088 ft | 403 kts | 295° |
| 2026-04-21 14:54 | 43.42281 | 112.12603 | 34091 ft | 411 kts | 310° |
| 2026-04-21 14:55 | 43.46869 | 112.07816 | 34090 ft | 418 kts | 321° |
| 2026-04-21 14:55 | 43.51824 | 112.03627 | 34091 ft | 419 kts | 323° |
| 2026-04-21 14:56 | 43.56805 | 111.99518 | 34090 ft | 417 kts | 323° |
| 2026-04-21 14:56 | 43.61762 | 111.95406 | 34084 ft | 419 kts | 323° |
| 2026-04-21 14:57 | 43.66721 | 111.91258 | 34081 ft | 415 kts | 323° |
| 2026-04-21 14:57 | 43.71607 | 111.87049 | 34078 ft | 416 kts | 321° |
| 2026-04-21 14:58 | 43.76420 | 111.82711 | 34080 ft | 414 kts | 321° |
| 2026-04-21 14:58 | 43.81233 | 111.78336 | 34075 ft | 415 kts | 321° |
| 2026-04-21 14:59 | 43.86027 | 111.73988 | 34071 ft | 412 kts | 321° |
| 2026-04-21 14:59 | 43.90823 | 111.69642 | 34068 ft | 413 kts | 321° |
| 2026-04-21 15:00 | 43.95631 | 111.65285 | 34065 ft | 411 kts | 321° |
| 2026-04-21 15:00 | 44.00407 | 111.60948 | 34071 ft | 411 kts | 321° |
| 2026-04-21 15:01 | 44.05165 | 111.56621 | 34077 ft | 411 kts | 321° |
| 2026-04-21 15:01 | 44.09952 | 111.52258 | 34075 ft | 410 kts | 321° |
| 2026-04-21 15:02 | 44.14728 | 111.47899 | 34078 ft | 410 kts | 321° |
| 2026-04-21 15:02 | 44.19479 | 111.43552 | 34086 ft | 408 kts | 321° |
| 2026-04-21 15:03 | 44.24226 | 111.39199 | 34088 ft | 409 kts | 321° |
| 2026-04-21 15:03 | 44.28955 | 111.34856 | 34091 ft | 408 kts | 321° |
| 2026-04-21 15:04 | 44.33706 | 111.30484 | 34092 ft | 408 kts | 320° |
| 2026-04-21 15:04 | 44.38428 | 111.26130 | 34089 ft | 406 kts | 321° |
| 2026-04-21 15:05 | 44.43143 | 111.21775 | 34094 ft | 406 kts | 321° |
| 2026-04-21 15:05 | 44.50217 | 111.15222 | 34095 ft | 407 kts | 321° |
| 2026-04-21 15:06 | 44.54906 | 111.10872 | 34095 ft | 404 kts | 321° |
| 2026-04-21 15:06 | 44.59598 | 111.06506 | 34095 ft | 405 kts | 321° |
| 2026-04-21 15:07 | 44.64287 | 111.02135 | 34096 ft | 405 kts | 321° |
| 2026-04-21 15:07 | 44.68959 | 110.97773 | 34095 ft | 403 kts | 321° |
| 2026-04-21 15:08 | 44.73632 | 110.93398 | 34095 ft | 405 kts | 321° |
| 2026-04-21 15:08 | 44.78294 | 110.89028 | 34092 ft | 404 kts | 321° |
| 2026-04-21 15:09 | 44.82937 | 110.84667 | 34095 ft | 402 kts | 321° |
| 2026-04-21 15:09 | 44.87584 | 110.80291 | 34095 ft | 401 kts | 321° |
| 2026-04-21 15:10 | 44.92225 | 110.75915 | 34094 ft | 403 kts | 321° |
| 2026-04-21 15:10 | 44.96880 | 110.71517 | 34095 ft | 402 kts | 321° |
| 2026-04-21 15:11 | 45.01526 | 110.67118 | 34091 ft | 402 kts | 321° |
| 2026-04-21 15:11 | 45.06127 | 110.62756 | 34085 ft | 400 kts | 321° |
| 2026-04-21 15:12 | 45.10781 | 110.58330 | 34088 ft | 402 kts | 321° |
| 2026-04-21 15:12 | 45.15395 | 110.53936 | 34091 ft | 402 kts | 322° |
| 2026-04-21 15:13 | 45.20035 | 110.49509 | 34090 ft | 401 kts | 321° |
| 2026-04-21 15:13 | 45.24671 | 110.45075 | 34095 ft | 402 kts | 322° |
| 2026-04-21 15:14 | 45.29285 | 110.40654 | 34095 ft | 402 kts | 322° |
| 2026-04-21 15:14 | 45.33928 | 110.36195 | 34092 ft | 401 kts | 322° |
| 2026-04-21 15:15 | 45.38547 | 110.31752 | 34097 ft | 403 kts | 321° |
| 2026-04-21 15:15 | 45.43176 | 110.27290 | 34089 ft | 402 kts | 321° |
| 2026-04-21 15:16 | 45.47796 | 110.22827 | 34089 ft | 403 kts | 321° |
| 2026-04-21 15:16 | 45.52436 | 110.18335 | 34092 ft | 402 kts | 322° |
| 2026-04-21 15:17 | 45.57080 | 110.13833 | 34092 ft | 404 kts | 321° |
| 2026-04-21 15:17 | 45.61705 | 110.09340 | 34095 ft | 403 kts | 322° |
| 2026-04-21 15:18 | 45.66329 | 110.04836 | 34092 ft | 404 kts | 322° |
| 2026-04-21 15:18 | 45.70974 | 110.00303 | 34097 ft | 404 kts | 322° |
| 2026-04-21 15:19 | 45.75604 | 109.95776 | 34096 ft | 405 kts | 322° |
| 2026-04-21 15:19 | 45.80241 | 109.91234 | 34089 ft | 403 kts | 322° |
| 2026-04-21 15:20 | 45.84873 | 109.86687 | 34093 ft | 405 kts | 322° |
| 2026-04-21 15:20 | 45.89513 | 109.82121 | 34089 ft | 405 kts | 322° |
| 2026-04-21 15:21 | 45.94169 | 109.77536 | 34093 ft | 404 kts | 322° |
| 2026-04-21 15:21 | 45.98810 | 109.72950 | 34089 ft | 406 kts | 322° |
| 2026-04-21 15:22 | 46.03443 | 109.68365 | 34093 ft | 404 kts | 322° |
| 2026-04-21 15:22 | 46.08058 | 109.63787 | 34092 ft | 403 kts | 322° |
| 2026-04-21 15:23 | 46.12677 | 109.59197 | 34091 ft | 404 kts | 322° |
| 2026-04-21 15:23 | 46.17321 | 109.54569 | 34093 ft | 405 kts | 322° |
| 2026-04-21 15:24 | 46.21934 | 109.49966 | 34092 ft | 404 kts | 322° |
| 2026-04-21 15:24 | 46.26546 | 109.45353 | 34092 ft | 404 kts | 322° |
| 2026-04-21 15:25 | 46.31169 | 109.40720 | 34092 ft | 404 kts | 322° |
| 2026-04-21 15:25 | 46.35794 | 109.36073 | 34090 ft | 404 kts | 323° |
| 2026-04-21 15:26 | 46.40373 | 109.31465 | 34100 ft | 403 kts | 322° |
| 2026-04-21 15:26 | 46.44952 | 109.26851 | 34090 ft | 401 kts | 322° |
| 2026-04-21 15:27 | 46.49555 | 109.22201 | 34091 ft | 403 kts | 322° |
| 2026-04-21 15:27 | 46.54148 | 109.17548 | 34096 ft | 402 kts | 322° |
| 2026-04-21 15:28 | 46.58724 | 109.12904 | 34092 ft | 402 kts | 322° |
| 2026-04-21 15:28 | 46.63290 | 109.08260 | 34094 ft | 402 kts | 322° |
| 2026-04-21 15:29 | 46.67876 | 109.03587 | 34096 ft | 401 kts | 322° |
| 2026-04-21 15:29 | 46.72443 | 108.98923 | 34092 ft | 403 kts | 322° |
| 2026-04-21 15:30 | 46.77018 | 108.94240 | 34094 ft | 401 kts | 322° |
| 2026-04-21 15:30 | 46.81570 | 108.89571 | 34092 ft | 402 kts | 322° |
| 2026-04-21 15:31 | 46.86131 | 108.84886 | 34099 ft | 401 kts | 322° |
| 2026-04-21 15:31 | 46.90679 | 108.80203 | 34092 ft | 399 kts | 322° |
| 2026-04-21 15:32 | 46.95251 | 108.75481 | 34091 ft | 402 kts | 322° |
| 2026-04-21 15:32 | 46.99828 | 108.70747 | 34085 ft | 402 kts | 322° |
| 2026-04-21 15:33 | 47.04388 | 108.66013 | 34095 ft | 402 kts | 322° |
| 2026-04-21 15:33 | 47.08942 | 108.61266 | 34094 ft | 402 kts | 322° |
| 2026-04-21 15:34 | 47.13501 | 108.56499 | 34100 ft | 401 kts | 322° |
| 2026-04-21 15:34 | 47.18030 | 108.51755 | 34098 ft | 401 kts | 322° |
| 2026-04-21 15:35 | 47.22574 | 108.46986 | 34102 ft | 400 kts | 322° |
| 2026-04-21 15:35 | 47.27108 | 108.42216 | 34100 ft | 401 kts | 322° |
| 2026-04-21 15:36 | 47.31643 | 108.37437 | 34107 ft | 401 kts | 322° |
| 2026-04-21 15:36 | 47.36174 | 108.32652 | 34108 ft | 401 kts | 321° |
| 2026-04-21 15:37 | 47.40700 | 108.27862 | 34111 ft | 400 kts | 321° |
| 2026-04-21 15:37 | 47.45201 | 108.23087 | 34111 ft | 401 kts | 321° |
| 2026-04-21 15:38 | 47.49726 | 108.18279 | 34111 ft | 400 kts | 321° |
| 2026-04-21 15:38 | 47.54241 | 108.13468 | 34107 ft | 399 kts | 321° |
| 2026-04-21 15:39 | 47.58754 | 108.08649 | 34115 ft | 399 kts | 321° |
| 2026-04-21 15:39 | 47.63209 | 108.03881 | 34117 ft | 399 kts | 321° |
| 2026-04-21 15:40 | 47.67733 | 107.99030 | 34117 ft | 398 kts | 321° |
| 2026-04-21 15:40 | 47.72197 | 107.94232 | 34113 ft | 398 kts | 321° |
| 2026-04-21 15:41 | 47.76667 | 107.89410 | 34109 ft | 398 kts | 321° |
| 2026-04-21 15:41 | 47.81153 | 107.84557 | 34112 ft | 398 kts | 321° |
| 2026-04-21 15:42 | 47.85632 | 107.79691 | 34102 ft | 397 kts | 321° |
| 2026-04-21 15:42 | 47.90115 | 107.74809 | 34108 ft | 398 kts | 321° |
| 2026-04-21 15:43 | 47.94547 | 107.69971 | 34107 ft | 397 kts | 321° |
| 2026-04-21 15:43 | 47.98986 | 107.65121 | 34101 ft | 396 kts | 321° |
| 2026-04-21 15:44 | 48.03437 | 107.60240 | 34092 ft | 396 kts | 321° |
| 2026-04-21 15:44 | 48.07862 | 107.55389 | 34084 ft | 396 kts | 321° |
| 2026-04-21 15:45 | 48.12315 | 107.50492 | 34076 ft | 396 kts | 321° |
| 2026-04-21 15:45 | 48.16752 | 107.45600 | 34074 ft | 396 kts | 321° |
| 2026-04-21 15:46 | 48.21169 | 107.40717 | 34075 ft | 397 kts | 321° |
| 2026-04-21 15:46 | 48.25590 | 107.35820 | 34079 ft | 396 kts | 321° |
| 2026-04-21 15:47 | 48.30018 | 107.30902 | 34084 ft | 396 kts | 320° |
| 2026-04-21 15:47 | 48.34429 | 107.26003 | 34085 ft | 395 kts | 320° |
| 2026-04-21 15:48 | 48.38838 | 107.21089 | 34087 ft | 395 kts | 320° |
| 2026-04-21 15:48 | 48.43253 | 107.16146 | 34086 ft | 397 kts | 320° |
| 2026-04-21 15:49 | 48.47673 | 107.11191 | 34090 ft | 395 kts | 320° |
| 2026-04-21 15:49 | 48.52057 | 107.06269 | 34090 ft | 395 kts | 320° |
| 2026-04-21 15:50 | 48.56446 | 107.01332 | 34091 ft | 395 kts | 320° |
| 2026-04-21 15:50 | 48.60855 | 106.96366 | 34085 ft | 395 kts | 320° |
| 2026-04-21 15:51 | 48.65286 | 106.91369 | 34083 ft | 396 kts | 320° |
| 2026-04-21 15:51 | 48.69665 | 106.86418 | 34076 ft | 397 kts | 320° |
| 2026-04-21 15:52 | 48.74072 | 106.81412 | 34069 ft | 396 kts | 320° |
| 2026-04-21 15:52 | 48.78479 | 106.76399 | 34065 ft | 394 kts | 320° |
| 2026-04-21 15:53 | 48.82836 | 106.71432 | 34063 ft | 394 kts | 320° |
| 2026-04-21 15:53 | 48.87214 | 106.66433 | 34055 ft | 395 kts | 320° |
| 2026-04-21 15:54 | 48.91595 | 106.61423 | 34049 ft | 393 kts | 320° |
| 2026-04-21 15:54 | 48.95942 | 106.56430 | 34045 ft | 392 kts | 320° |
| 2026-04-21 15:55 | 49.00315 | 106.51388 | 34044 ft | 395 kts | 320° |
| 2026-04-21 15:55 | 49.04668 | 106.46358 | 34034 ft | 393 kts | 320° |
| 2026-04-21 15:56 | 49.09026 | 106.41311 | 34025 ft | 393 kts | 320° |
| 2026-04-21 15:56 | 49.13388 | 106.36264 | 34021 ft | 394 kts | 320° |
| 2026-04-21 15:57 | 49.17763 | 106.31189 | 34022 ft | 393 kts | 319° |
| 2026-04-21 15:57 | 49.22118 | 106.26141 | 34014 ft | 394 kts | 319° |
| 2026-04-21 15:58 | 49.26486 | 106.21044 | 34010 ft | 392 kts | 319° |
| 2026-04-21 15:58 | 49.30813 | 106.15978 | 34016 ft | 394 kts | 320° |
| 2026-04-21 15:59 | 49.35137 | 106.10916 | 34018 ft | 392 kts | 319° |
| 2026-04-21 15:59 | 49.39481 | 106.05820 | 34027 ft | 392 kts | 319° |
| 2026-04-21 16:00 | 49.43784 | 106.00754 | 34018 ft | 392 kts | 319° |
| 2026-04-21 16:00 | 49.48104 | 105.95658 | 34016 ft | 391 kts | 319° |
| 2026-04-21 16:01 | 49.52408 | 105.90564 | 34013 ft | 392 kts | 319° |
| 2026-04-21 16:01 | 49.56736 | 105.85438 | 34016 ft | 392 kts | 319° |
| 2026-04-21 16:02 | 49.61052 | 105.80315 | 34009 ft | 392 kts | 319° |
| 2026-04-21 16:02 | 49.65362 | 105.75191 | 34006 ft | 392 kts | 319° |
| 2026-04-21 16:03 | 49.69645 | 105.70073 | 34009 ft | 390 kts | 319° |
| 2026-04-21 16:03 | 49.73936 | 105.64941 | 34012 ft | 392 kts | 319° |
| 2026-04-21 16:04 | 49.78234 | 105.59774 | 34011 ft | 392 kts | 319° |
| 2026-04-21 16:04 | 49.82547 | 105.54617 | 34010 ft | 391 kts | 319° |
| 2026-04-21 16:05 | 49.86827 | 105.49467 | 34005 ft | 391 kts | 319° |
| 2026-04-21 16:05 | 49.91101 | 105.44305 | 34001 ft | 390 kts | 319° |
| 2026-04-21 16:06 | 49.95385 | 105.39123 | 34001 ft | 390 kts | 319° |
| 2026-04-21 16:06 | 49.99650 | 105.33958 | 34000 ft | 389 kts | 319° |
| 2026-04-21 16:07 | 50.03920 | 105.28762 | 33995 ft | 389 kts | 318° |
| 2026-04-21 16:07 | 50.08171 | 105.23576 | 33986 ft | 391 kts | 318° |
| 2026-04-21 16:08 | 50.14559 | 105.15773 | 33987 ft | 390 kts | 319° |
| 2026-04-21 16:09 | 50.18823 | 105.10553 | 33988 ft | 389 kts | 318° |
| 2026-04-21 16:09 | 50.23059 | 105.05353 | 33990 ft | 392 kts | 318° |
| 2026-04-21 16:10 | 50.27352 | 105.00068 | 34007 ft | 391 kts | 318° |
| 2026-04-21 16:10 | 50.31622 | 104.94801 | 34012 ft | 392 kts | 318° |
| 2026-04-21 16:11 | 50.35875 | 104.89477 | 34023 ft | 391 kts | 316° |
| 2026-04-21 16:11 | 50.39687 | 104.83500 | 34023 ft | 388 kts | 310° |
| 2026-04-21 16:12 | 50.43166 | 104.77048 | 34027 ft | 387 kts | 308° |
| 2026-04-21 16:12 | 50.46577 | 104.70564 | 34027 ft | 388 kts | 308° |
| 2026-04-21 16:13 | 50.50030 | 104.64001 | 34031 ft | 388 kts | 308° |
| 2026-04-21 16:13 | 50.53437 | 104.57537 | 34026 ft | 387 kts | 308° |
| 2026-04-21 16:14 | 50.56878 | 104.51009 | 34021 ft | 388 kts | 308° |
| 2026-04-21 16:14 | 50.60299 | 104.44504 | 34018 ft | 387 kts | 308° |
| 2026-04-21 16:15 | 50.63742 | 104.37944 | 34021 ft | 387 kts | 308° |
| 2026-04-21 16:15 | 50.67163 | 104.31407 | 34021 ft | 387 kts | 308° |
| 2026-04-21 16:16 | 50.70552 | 104.24858 | 34025 ft | 387 kts | 307° |
| 2026-04-21 16:16 | 50.73943 | 104.18273 | 34028 ft | 387 kts | 307° |
| 2026-04-21 16:17 | 50.77327 | 104.11693 | 34030 ft | 386 kts | 307° |
| 2026-04-21 16:17 | 50.80703 | 104.05107 | 34029 ft | 387 kts | 307° |
| 2026-04-21 16:18 | 50.84097 | 103.98482 | 34031 ft | 388 kts | 307° |
| 2026-04-21 16:18 | 50.87495 | 103.91831 | 34032 ft | 387 kts | 307° |
| 2026-04-21 16:19 | 50.90848 | 103.85251 | 34035 ft | 387 kts | 307° |
| 2026-04-21 16:19 | 50.94208 | 103.78637 | 34033 ft | 386 kts | 307° |
| 2026-04-21 16:20 | 50.97578 | 103.71987 | 34037 ft | 386 kts | 307° |
| 2026-04-21 16:20 | 51.00930 | 103.65358 | 34036 ft | 387 kts | 307° |
| 2026-04-21 16:21 | 51.04293 | 103.58689 | 34037 ft | 387 kts | 307° |
| 2026-04-21 16:21 | 51.07634 | 103.52041 | 34033 ft | 387 kts | 307° |
| 2026-04-21 16:22 | 51.10999 | 103.45327 | 34038 ft | 387 kts | 307° |
| 2026-04-21 16:22 | 51.14352 | 103.38621 | 34046 ft | 385 kts | 307° |
| 2026-04-21 16:23 | 51.17681 | 103.31955 | 34040 ft | 385 kts | 306° |
| 2026-04-21 16:23 | 51.21000 | 103.25303 | 34032 ft | 386 kts | 306° |
| 2026-04-21 16:24 | 51.24356 | 103.18565 | 34043 ft | 385 kts | 306° |
| 2026-04-21 16:24 | 51.27677 | 103.11873 | 34029 ft | 386 kts | 306° |
| 2026-04-21 16:25 | 51.31021 | 103.05118 | 34012 ft | 388 kts | 307° |
| 2026-04-21 16:25 | 51.34362 | 102.98353 | 34019 ft | 388 kts | 306° |
| 2026-04-21 16:26 | 51.37709 | 102.91557 | 34005 ft | 388 kts | 307° |
| 2026-04-21 16:26 | 51.41025 | 102.84802 | 34012 ft | 389 kts | 307° |
| 2026-04-21 16:27 | 51.44356 | 102.78000 | 34009 ft | 389 kts | 307° |
| 2026-04-21 16:27 | 51.47695 | 102.71165 | 34023 ft | 389 kts | 306° |
| 2026-04-21 16:28 | 51.51028 | 102.64326 | 34005 ft | 390 kts | 307° |
| 2026-04-21 16:28 | 51.54345 | 102.57501 | 34010 ft | 389 kts | 307° |
| 2026-04-21 16:29 | 51.57676 | 102.50633 | 34011 ft | 390 kts | 306° |
| 2026-04-21 16:29 | 51.61014 | 102.43730 | 34009 ft | 390 kts | 306° |
| 2026-04-21 16:30 | 51.64345 | 102.36820 | 34025 ft | 391 kts | 306° |
| 2026-04-21 16:30 | 51.67677 | 102.29892 | 34026 ft | 390 kts | 306° |
| 2026-04-21 16:31 | 51.70985 | 102.22993 | 34049 ft | 390 kts | 306° |
| 2026-04-21 16:31 | 51.74288 | 102.16085 | 34061 ft | 390 kts | 306° |
| 2026-04-21 16:32 | 51.77604 | 102.09132 | 34073 ft | 391 kts | 306° |
| 2026-04-21 16:32 | 51.80908 | 102.02185 | 34060 ft | 392 kts | 306° |
| 2026-04-21 16:33 | 51.84195 | 101.95262 | 34041 ft | 391 kts | 306° |
| 2026-04-21 16:33 | 51.87491 | 101.88296 | 34008 ft | 391 kts | 306° |
| 2026-04-21 16:34 | 51.90792 | 101.81293 | 33982 ft | 392 kts | 306° |
| 2026-04-21 16:34 | 51.94092 | 101.74280 | 33961 ft | 392 kts | 306° |
| 2026-04-21 16:35 | 51.97406 | 101.67221 | 33958 ft | 392 kts | 306° |
| 2026-04-21 16:35 | 52.00703 | 101.60187 | 33969 ft | 393 kts | 306° |
| 2026-04-21 16:36 | 52.03997 | 101.53142 | 33968 ft | 394 kts | 306° |
| 2026-04-21 16:36 | 52.07288 | 101.46085 | 33970 ft | 392 kts | 306° |
| 2026-04-21 16:37 | 52.10553 | 101.39059 | 33959 ft | 392 kts | 306° |
| 2026-04-21 16:37 | 52.13852 | 101.31943 | 33966 ft | 392 kts | 306° |
| 2026-04-21 16:38 | 52.17108 | 101.24896 | 33966 ft | 391 kts | 306° |
| 2026-04-21 16:38 | 52.20371 | 101.17816 | 33972 ft | 392 kts | 306° |
| 2026-04-21 16:39 | 52.23656 | 101.10671 | 33981 ft | 391 kts | 305° |
| 2026-04-21 16:39 | 52.26909 | 101.03578 | 33986 ft | 392 kts | 305° |
| 2026-04-21 16:40 | 52.30172 | 100.96443 | 33996 ft | 391 kts | 305° |
| 2026-04-21 16:40 | 52.33422 | 100.89314 | 34005 ft | 392 kts | 305° |
| 2026-04-21 16:41 | 52.36659 | 100.82192 | 33998 ft | 391 kts | 305° |
| 2026-04-21 16:41 | 52.39887 | 100.75070 | 33992 ft | 391 kts | 306° |
| 2026-04-21 16:42 | 52.43125 | 100.67907 | 33993 ft | 392 kts | 306° |
| 2026-04-21 16:42 | 52.46373 | 100.60704 | 33983 ft | 391 kts | 305° |
| 2026-04-21 16:43 | 52.49569 | 100.53595 | 33978 ft | 391 kts | 306° |
| 2026-04-21 16:43 | 52.52801 | 100.46385 | 33959 ft | 392 kts | 305° |
| 2026-04-21 16:44 | 52.56010 | 100.39208 | 33958 ft | 391 kts | 306° |
| 2026-04-21 16:44 | 52.59218 | 100.32015 | 33948 ft | 390 kts | 304° |
| 2026-04-21 16:45 | 52.62429 | 100.24791 | 33959 ft | 390 kts | 305° |
| 2026-04-21 16:45 | 52.65624 | 100.17580 | 33948 ft | 389 kts | 305° |
| 2026-04-21 16:46 | 52.68799 | 100.10394 | 33936 ft | 389 kts | 304° |
| 2026-04-21 16:46 | 52.71972 | 100.03191 | 33919 ft | 387 kts | 304° |
| 2026-04-21 16:47 | 52.75079 | 99.96127 | 33911 ft | 378 kts | 304° |
| 2026-04-21 16:47 | 52.78191 | 99.89016 | 33928 ft | 389 kts | 305° |
| 2026-04-21 16:48 | 52.81354 | 99.81775 | 33950 ft | 389 kts | 305° |
| 2026-04-21 16:48 | 52.84517 | 99.74522 | 33968 ft | 389 kts | 305° |
| 2026-04-21 16:49 | 52.87650 | 99.67305 | 33942 ft | 388 kts | 305° |
| 2026-04-21 16:49 | 52.90773 | 99.60100 | 33914 ft | 389 kts | 305° |
| 2026-04-21 16:50 | 52.93920 | 99.52820 | 33891 ft | 387 kts | 305° |
| 2026-04-21 16:50 | 52.97058 | 99.45531 | 33893 ft | 389 kts | 305° |
| 2026-04-21 16:51 | 53.00217 | 99.38174 | 33890 ft | 388 kts | 305° |
| 2026-04-21 16:51 | 53.03323 | 99.30919 | 33892 ft | 387 kts | 304° |
| 2026-04-21 16:52 | 53.06452 | 99.23590 | 33896 ft | 388 kts | 304° |
| 2026-04-21 16:52 | 53.09561 | 99.16293 | 33931 ft | 387 kts | 304° |
| 2026-04-21 16:53 | 53.12659 | 99.09000 | 33955 ft | 387 kts | 304° |
| 2026-04-21 16:53 | 53.15739 | 99.01720 | 33954 ft | 386 kts | 304° |
| 2026-04-21 16:54 | 53.18840 | 98.94372 | 33958 ft | 387 kts | 304° |
| 2026-04-21 16:54 | 53.21914 | 98.87072 | 33947 ft | 385 kts | 304° |
| 2026-04-21 16:55 | 53.24990 | 98.79745 | 33948 ft | 387 kts | 304° |
| 2026-04-21 16:55 | 53.28052 | 98.72425 | 33944 ft | 386 kts | 304° |
| 2026-04-21 16:56 | 53.31116 | 98.65085 | 33952 ft | 385 kts | 305° |
| 2026-04-21 16:56 | 53.34164 | 98.57758 | 33950 ft | 385 kts | 304° |
| 2026-04-21 16:57 | 53.37206 | 98.50427 | 33951 ft | 385 kts | 304° |
| 2026-04-21 16:57 | 53.40241 | 98.43089 | 33949 ft | 384 kts | 304° |
| 2026-04-21 16:58 | 53.43271 | 98.35740 | 33940 ft | 384 kts | 304° |
| 2026-04-21 16:58 | 53.46318 | 98.28334 | 33927 ft | 385 kts | 303° |
| 2026-04-21 16:59 | 53.49339 | 98.20969 | 33926 ft | 383 kts | 303° |
| 2026-04-21 16:59 | 53.52348 | 98.13609 | 33937 ft | 383 kts | 304° |
| 2026-04-21 17:00 | 53.55364 | 98.06215 | 33954 ft | 384 kts | 303° |
| 2026-04-21 17:00 | 53.57848 | 98.00108 | 33963 ft | 382 kts | 303° |
| 2026-04-21 17:01 | 53.61336 | 97.91504 | 33964 ft | 383 kts | 303° |
| 2026-04-21 17:01 | 53.64336 | 97.84076 | 33957 ft | 382 kts | 304° |
| 2026-04-21 17:02 | 53.67296 | 97.76731 | 33950 ft | 381 kts | 304° |
| 2026-04-21 17:02 | 53.70254 | 97.69369 | 33943 ft | 380 kts | 304° |
| 2026-04-21 17:03 | 53.73222 | 97.61961 | 33934 ft | 380 kts | 304° |
| 2026-04-21 17:03 | 53.76176 | 97.54566 | 33934 ft | 380 kts | 304° |
| 2026-04-21 17:04 | 53.79123 | 97.47169 | 33928 ft | 380 kts | 304° |
| 2026-04-21 17:04 | 53.82064 | 97.39765 | 33916 ft | 378 kts | 304° |
| 2026-04-21 17:05 | 53.84978 | 97.32407 | 33912 ft | 379 kts | 303° |
| 2026-04-21 17:05 | 53.87906 | 97.24985 | 33915 ft | 379 kts | 303° |
| 2026-04-21 17:06 | 53.90802 | 97.17620 | 33907 ft | 378 kts | 303° |
| 2026-04-21 17:06 | 53.93696 | 97.10249 | 33882 ft | 376 kts | 303° |
| 2026-04-21 17:07 | 53.96596 | 97.02843 | 33863 ft | 378 kts | 303° |
| 2026-04-21 17:07 | 53.99484 | 96.95445 | 33858 ft | 378 kts | 303° |
| 2026-04-21 17:08 | 54.02377 | 96.88000 | 33867 ft | 377 kts | 303° |
| 2026-04-21 17:08 | 54.05262 | 96.80560 | 33885 ft | 376 kts | 303° |
| 2026-04-21 17:09 | 54.09563 | 96.69429 | 33905 ft | 376 kts | 303° |
| 2026-04-21 17:09 | 54.12424 | 96.61993 | 33912 ft | 376 kts | 303° |
| 2026-04-21 17:10 | 54.15273 | 96.54574 | 33904 ft | 375 kts | 303° |
| 2026-04-21 17:10 | 54.18128 | 96.47117 | 33892 ft | 373 kts | 303° |
| 2026-04-21 17:11 | 54.20947 | 96.39727 | 33908 ft | 374 kts | 303° |
| 2026-04-21 17:11 | 54.23769 | 96.32312 | 33924 ft | 372 kts | 302° |
| 2026-04-21 17:12 | 54.26575 | 96.24889 | 33945 ft | 373 kts | 302° |
| 2026-04-21 17:12 | 54.29136 | 96.17186 | 33950 ft | 371 kts | 298° |
| 2026-04-21 17:13 | 54.31535 | 96.09419 | 33947 ft | 372 kts | 298° |
| 2026-04-21 17:13 | 54.33988 | 96.01544 | 33939 ft | 374 kts | 298° |
| 2026-04-21 17:14 | 54.36427 | 95.93774 | 33948 ft | 372 kts | 299° |
| 2026-04-21 17:14 | 54.38881 | 95.85970 | 33958 ft | 372 kts | 299° |
| 2026-04-21 17:15 | 54.41323 | 95.78200 | 33962 ft | 372 kts | 299° |
| 2026-04-21 17:15 | 54.43778 | 95.70363 | 33965 ft | 372 kts | 298° |
| 2026-04-21 17:16 | 54.46204 | 95.62591 | 33971 ft | 371 kts | 299° |
| 2026-04-21 17:16 | 54.48645 | 95.54771 | 33975 ft | 371 kts | 299° |
| 2026-04-21 17:17 | 54.51582 | 95.47540 | 33982 ft | 374 kts | 312° |
| 2026-04-21 17:17 | 54.55808 | 95.42142 | 33984 ft | 381 kts | 326° |
| 2026-04-21 17:18 | 54.60592 | 95.38145 | 33984 ft | 386 kts | 330° |
| 2026-04-21 17:18 | 54.65519 | 95.34498 | 33985 ft | 387 kts | 330° |
| 2026-04-21 17:19 | 54.70442 | 95.30854 | 33990 ft | 383 kts | 330° |
| 2026-04-21 17:19 | 54.75364 | 95.27155 | 33990 ft | 386 kts | 329° |
| 2026-04-21 17:20 | 54.80277 | 95.23430 | 33998 ft | 385 kts | 329° |
| 2026-04-21 17:20 | 54.85139 | 95.19725 | 34010 ft | 384 kts | 329° |
| 2026-04-21 17:21 | 54.90046 | 95.15970 | 34030 ft | 384 kts | 329° |
| 2026-04-21 17:21 | 54.94937 | 95.12214 | 34043 ft | 384 kts | 329° |
| 2026-04-21 17:22 | 54.99836 | 95.08445 | 34067 ft | 385 kts | 329° |
| 2026-04-21 17:22 | 55.04694 | 95.04700 | 34089 ft | 384 kts | 329° |
| 2026-04-21 17:23 | 55.09575 | 95.00928 | 34101 ft | 384 kts | 329° |
| 2026-04-21 17:23 | 55.14465 | 94.97136 | 34110 ft | 383 kts | 329° |
| 2026-04-21 17:24 | 55.19347 | 94.93340 | 34115 ft | 386 kts | 329° |
| 2026-04-21 17:24 | 55.24221 | 94.89539 | 33955 ft | 382 kts | 329° |
| 2026-04-21 17:25 | 55.26598 | 94.87665 | 33707 ft | 373 kts | 327° |
| 2026-04-21 17:25 | 55.28880 | 94.85619 | 33458 ft | 365 kts | 324° |
| 2026-04-21 17:25 | 55.31082 | 94.83426 | 33213 ft | 365 kts | 323° |
| 2026-04-21 17:25 | 55.33263 | 94.81165 | 32901 ft | 367 kts | 323° |
| 2026-04-21 17:26 | 55.35450 | 94.78895 | 32370 ft | 366 kts | 323° |
| 2026-04-21 17:26 | 55.37650 | 94.76627 | 31734 ft | 365 kts | 323° |
| 2026-04-21 17:26 | 55.39802 | 94.74424 | 31262 ft | 360 kts | 323° |
| 2026-04-21 17:26 | 55.41981 | 94.72207 | 30740 ft | 356 kts | 323° |
| 2026-04-21 17:27 | 55.44072 | 94.70083 | 30232 ft | 351 kts | 323° |
| 2026-04-21 17:27 | 55.46167 | 94.67952 | 29742 ft | 346 kts | 323° |
| 2026-04-21 17:27 | 55.48252 | 94.65830 | 29238 ft | 342 kts | 323° |
| 2026-04-21 17:27 | 55.50290 | 94.63755 | 28756 ft | 339 kts | 323° |
| 2026-04-21 17:28 | 55.52319 | 94.61682 | 28276 ft | 344 kts | 323° |
| 2026-04-21 17:28 | 55.54382 | 94.59572 | 27762 ft | 343 kts | 323° |
| 2026-04-21 17:28 | 55.56426 | 94.57487 | 27256 ft | 338 kts | 323° |
| 2026-04-21 17:28 | 55.58445 | 94.55428 | 26767 ft | 333 kts | 323° |
| 2026-04-21 17:29 | 55.60422 | 94.53411 | 26291 ft | 329 kts | 323° |
| 2026-04-21 17:29 | 55.62379 | 94.51411 | 25809 ft | 324 kts | 323° |
| 2026-04-21 17:29 | 55.64309 | 94.49430 | 25345 ft | 325 kts | 323° |
| 2026-04-21 17:29 | 55.66289 | 94.47386 | 24857 ft | 330 kts | 323° |
| 2026-04-21 17:30 | 55.68257 | 94.45358 | 24373 ft | 327 kts | 323° |
| 2026-04-21 17:30 | 55.70196 | 94.43366 | 23905 ft | 323 kts | 323° |
| 2026-04-21 17:30 | 55.72104 | 94.41405 | 23438 ft | 319 kts | 323° |
| 2026-04-21 17:30 | 55.73999 | 94.39453 | 22972 ft | 315 kts | 323° |
| 2026-04-21 17:31 | 55.75895 | 94.37498 | 22501 ft | 311 kts | 322° |
| 2026-04-21 17:31 | 55.77732 | 94.35600 | 22039 ft | 308 kts | 322° |
| 2026-04-21 17:31 | 55.79501 | 94.33512 | 21564 ft | 299 kts | 316° |
| 2026-04-21 17:31 | 55.80964 | 94.31027 | 21130 ft | 290 kts | 305° |
| 2026-04-21 17:32 | 55.82109 | 94.28116 | 20667 ft | 284 kts | 297° |
| 2026-04-21 17:32 | 55.83000 | 94.25069 | 20214 ft | 280 kts | 292° |
| 2026-04-21 17:32 | 55.83693 | 94.21867 | 19746 ft | 278 kts | 288° |
| 2026-04-21 17:32 | 55.84281 | 94.18600 | 19290 ft | 275 kts | 287° |
| 2026-04-21 17:33 | 55.84841 | 94.15395 | 18844 ft | 272 kts | 287° |
| 2026-04-21 17:33 | 55.85408 | 94.12178 | 18401 ft | 270 kts | 288° |
| 2026-04-21 17:33 | 55.85969 | 94.09032 | 17963 ft | 268 kts | 288° |
| 2026-04-21 17:33 | 55.86533 | 94.05898 | 17522 ft | 266 kts | 288° |
| 2026-04-21 17:34 | 55.87094 | 94.02789 | 17085 ft | 263 kts | 288° |
| 2026-04-21 17:34 | 55.87651 | 93.99703 | 16659 ft | 261 kts | 288° |
| 2026-04-21 17:34 | 55.88202 | 93.96654 | 16227 ft | 259 kts | 288° |
| 2026-04-21 17:34 | 55.88749 | 93.93618 | 15812 ft | 258 kts | 288° |
| 2026-04-21 17:35 | 55.89290 | 93.90610 | 15369 ft | 257 kts | 288° |
| 2026-04-21 17:35 | 55.89829 | 93.87604 | 14956 ft | 255 kts | 288° |
| 2026-04-21 17:35 | 55.90367 | 93.84594 | 14541 ft | 260 kts | 288° |
| 2026-04-21 17:35 | 55.90936 | 93.81464 | 14107 ft | 267 kts | 289° |
| 2026-04-21 17:36 | 55.91549 | 93.78383 | 13658 ft | 266 kts | 290° |
| 2026-04-21 17:36 | 55.92194 | 93.75296 | 13214 ft | 264 kts | 290° |
| 2026-04-21 17:36 | 55.92826 | 93.72272 | 12785 ft | 263 kts | 290° |
| 2026-04-21 17:36 | 55.93455 | 93.69222 | 12349 ft | 262 kts | 290° |
| 2026-04-21 17:37 | 55.94073 | 93.66195 | 11926 ft | 261 kts | 290° |
| 2026-04-21 17:37 | 55.94692 | 93.63150 | 11498 ft | 260 kts | 290° |
| 2026-04-21 17:37 | 55.95304 | 93.60132 | 11067 ft | 259 kts | 290° |
| 2026-04-21 17:37 | 55.95906 | 93.57157 | 10714 ft | 256 kts | 290° |
| 2026-04-21 17:38 | 55.96501 | 93.54219 | 10497 ft | 248 kts | 290° |
| 2026-04-21 17:38 | 55.97071 | 93.51403 | 10385 ft | 237 kts | 290° |
| 2026-04-21 17:38 | 55.97618 | 93.48697 | 10297 ft | 225 kts | 290° |
| 2026-04-21 17:38 | 55.98138 | 93.46119 | 10194 ft | 217 kts | 290° |
| 2026-04-21 17:39 | 55.98661 | 93.43517 | 9956 ft | 233 kts | 290° |
| 2026-04-21 17:39 | 55.99215 | 93.40764 | 9607 ft | 242 kts | 290° |
| 2026-04-21 17:39 | 55.99781 | 93.37945 | 9289 ft | 239 kts | 291° |
| 2026-04-21 17:39 | 56.00333 | 93.35191 | 8981 ft | 237 kts | 291° |
| 2026-04-21 17:40 | 56.00884 | 93.32439 | 8663 ft | 235 kts | 290° |
| 2026-04-21 17:40 | 56.01432 | 93.29697 | 8299 ft | 237 kts | 290° |
| 2026-04-21 17:40 | 56.01994 | 93.26883 | 7974 ft | 241 kts | 289° |
| 2026-04-21 17:40 | 56.02479 | 93.23999 | 7659 ft | 243 kts | 285° |
| 2026-04-21 17:41 | 56.02873 | 93.21094 | 7336 ft | 241 kts | 284° |
| 2026-04-21 17:41 | 56.03238 | 93.18167 | 7028 ft | 240 kts | 284° |
| 2026-04-21 17:41 | 56.03601 | 93.15298 | 6717 ft | 239 kts | 284° |
| 2026-04-21 17:41 | 56.03978 | 93.12391 | 6397 ft | 238 kts | 284° |
| 2026-04-21 17:42 | 56.04358 | 93.09495 | 6091 ft | 242 kts | 285° |
| 2026-04-21 17:42 | 56.04745 | 93.06555 | 5767 ft | 243 kts | 285° |
| 2026-04-21 17:42 | 56.05023 | 93.03604 | 5460 ft | 243 kts | 276° |
| 2026-04-21 17:42 | 56.05154 | 93.00603 | 5151 ft | 241 kts | 281° |
| 2026-04-21 17:43 | 56.05564 | 92.97745 | 4834 ft | 240 kts | 291° |
| 2026-04-21 17:43 | 56.06192 | 92.94978 | 4520 ft | 238 kts | 295° |
| 2026-04-21 17:43 | 56.06870 | 92.92311 | 4249 ft | 236 kts | 296° |
| 2026-04-21 17:43 | 56.07530 | 92.89671 | 4103 ft | 228 kts | 295° |
| 2026-04-21 17:44 | 56.08148 | 92.87131 | 4001 ft | 222 kts | 295° |
| 2026-04-21 17:44 | 56.08775 | 92.84554 | 3991 ft | 224 kts | 295° |
| 2026-04-21 17:44 | 56.09386 | 92.82046 | 3990 ft | 217 kts | 295° |
| 2026-04-21 17:44 | 56.09983 | 92.79587 | 3996 ft | 212 kts | 295° |
| 2026-04-21 17:45 | 56.10550 | 92.77276 | 3995 ft | 188 kts | 296° |
| 2026-04-21 17:45 | 56.11047 | 92.75257 | 3933 ft | 170 kts | 296° |
| 2026-04-21 17:45 | 56.11496 | 92.73412 | 3663 ft | 159 kts | 296° |
| 2026-04-21 17:45 | 56.11925 | 92.71637 | 3421 ft | 152 kts | 296° |
| 2026-04-21 17:46 | 56.12354 | 92.69871 | 3209 ft | 155 kts | 296° |
| 2026-04-21 17:46 | 56.12775 | 92.68121 | 2968 ft | 154 kts | 295° |
| 2026-04-21 17:46 | 56.13192 | 92.66352 | 2738 ft | 150 kts | 294° |
| 2026-04-21 17:46 | 56.13588 | 92.64677 | 2626 ft | 143 kts | 295° |
| 2026-04-21 17:47 | 56.13997 | 92.63010 | 2333 ft | 149 kts | 296° |
| 2026-04-21 17:47 | 56.14412 | 92.61339 | 2149 ft | 147 kts | 295° |
| 2026-04-21 17:47 | 56.14813 | 92.59667 | 1978 ft | 145 kts | 294° |
| 2026-04-21 17:47 | 56.15216 | 92.58005 | 1726 ft | 148 kts | 294° |
| 2026-04-21 17:48 | 56.15627 | 92.56319 | 1528 ft | 146 kts | 294° |
| 2026-04-21 17:48 | 56.16016 | 92.54627 | 1303 ft | 147 kts | 293° |
| 2026-04-21 17:48 | 56.16421 | 92.52949 | 1089 ft | 147 kts | 295° |
| 2026-04-21 17:48 | 56.16835 | 92.51276 | 924 ft | 145 kts | 294° |
| 2026-04-21 17:49 | 56.17158 | 92.49902 | 911 ft | 89 kts | 293° |
| 2026-04-21 17:49 | 56.17330 | 92.49165 | 903 ft | 39 kts | 295° |
| 2026-04-21 17:49 | 56.17409 | 92.48864 | 900 ft | 21 kts | 299° |
| 2026-04-21 17:49 | 56.17513 | 92.48686 | 898 ft | 18 kts | 328° |
| 2026-04-21 17:50 | 56.17582 | 92.48595 | 896 ft | 12 kts | 322° |
| 2026-04-21 17:50 | 56.17621 | 92.48540 | 895 ft | 0 kts | 321° |
| 2026-04-21 17:52 | 56.17631 | 92.48525 | 895 ft | 6 kts | 321° |
| 2026-04-21 17:52 | 56.17702 | 92.48444 | 896 ft | 16 kts | 332° |
| 2026-04-21 17:52 | 56.17805 | 92.48426 | 900 ft | 14 kts | 21° |
| 2026-04-21 17:53 | 56.17891 | 92.48492 | 901 ft | 13 kts | 23° |
| 2026-04-21 17:53 | 56.17937 | 92.48528 | 903 ft | 1 kts | 22° |
| 2026-04-21 17:53 | 56.17938 | 92.48528 | 903 ft | 0 kts | 22° |